Terminal Aerodrome Forecast
Issued by NWS Sterling, VA

Current Version | Previous Version | Graphics & Text | Print | Product List | Glossary On
Versions: 1 2 3 4 5 6 7 8 9 10 11 12 13 14
203
FTUS41 KLWX 201120
TAFMRB
TAF
KMRB 201120Z 2012/2112 VRB03KT 1SM BR BKN002
     FM201300 VRB03KT 2SM BR SCT002
     FM201400 32008G16KT P6SM SCT050 SCT200
     FM210000 VRB03KT P6SM SCT200
     FM210600 VRB03KT 3SM BR SCT200=

USA.gov is the U.S. government's official web portal to all federal, state and local government web resources and services.